Time;durP1;ratioP1;P1;durP2;ratioP2;P2;SDS_P1;SDS_P2;PMS_P1;PMS_P2;Temp;Humidity;BMP_temperature;BMP_pressure;BME280_temperature;BME280_humidity;BME280_pressure;Samples;Min_cycle;Max_cycle;Signal;HPM_P1;HPM_P2
2023/07/05 00:01:03;;;;;;;;;9.67;7.33;;;;;;;;2034605;27;2746179;-81
2023/07/05 00:02:14;;;;;;;;;9.67;8.33;;;;;;;;2074658;27;1825312;-81
2023/07/05 00:03:25;;;;;;;;;10.50;7.00;;;;;;;;2042651;27;2744012;-78
2023/07/05 00:04:36;;;;;;;;;8.00;4.33;;;;;;;;2066056;27;3460664;-76
2023/07/05 00:05:47;;;;;;;;;12.33;7.00;;;;;;;;2058360;27;3459634;-76
2023/07/05 00:06:58;;;;;;;;;11.60;8.20;;;;;;;;2062996;27;1825308;-76
2023/07/05 00:08:09;;;;;;;;;5.33;5.33;;;;;;;;2007745;27;3456483;-76
2023/07/05 00:09:20;;;;;;;;;10.00;10.00;;;;;;;;2051050;27;2770055;-75
2023/07/05 00:10:31;;;;;;;;;7.00;7.00;;;;;;;;2052625;27;3440847;-75
2023/07/05 00:11:42;;;;;;;;;8.00;6.67;;;;;;;;2031784;27;2738904;-78
2023/07/05 00:12:53;;;;;;;;;9.00;9.00;;;;;;;;2047383;27;2738842;-78
2023/07/05 00:14:03;;;;;;;;;9.67;8.00;;;;;;;;2056104;27;3475228;-78
2023/07/05 00:15:14;;;;;;;;;8.00;8.00;;;;;;;;2058502;27;2741287;-78
2023/07/05 00:16:25;;;;;;;;;10.75;8.75;;;;;;;;2071483;27;1825281;-78
2023/07/05 00:17:38;;;;;;;;;8.33;7.33;;;;;;;;2052157;27;1821076;-78
2023/07/05 00:18:49;;;;;;;;;11.50;9.00;;;;;;;;2032942;27;2759636;-78
2023/07/05 00:20:00;;;;;;;;;14.00;9.00;;;;;;;;2062377;27;2764941;-78
2023/07/05 00:21:11;;;;;;;;;11.00;10.00;;;;;;;;2050243;27;2783110;-76
2023/07/05 00:22:22;;;;;;;;;12.50;8.00;;;;;;;;2052905;27;2764819;-76
2023/07/05 00:23:34;;;;;;;;;10.00;8.00;;;;;;;;2062713;27;2756522;-76
2023/07/05 00:24:46;;;;;;;;;12.60;9.20;;;;;;;;2061464;27;2779375;-76
2023/07/05 00:25:57;;;;;;;;;12.00;10.00;;;;;;;;2061642;27;2774573;-76
2023/07/05 00:27:08;;;;;;;;;11.50;11.50;;;;;;;;2064199;27;2787744;-76
2023/07/05 00:28:18;;;;;;;;;9.50;7.50;;;;;;;;2065155;27;2745061;-76
2023/07/05 00:29:29;;;;;;;;;13.00;9.33;;;;;;;;2072198;27;1837845;-76
2023/07/05 00:30:41;;;;;;;;;8.33;6.33;;;;;;;;2042329;27;3456474;-76
2023/07/05 00:31:51;;;;;;;;;9.00;8.00;;;;;;;;2033413;27;2746107;-75
2023/07/05 00:33:02;;;;;;;;;11.00;8.50;;;;;;;;2058759;27;2757564;-76
2023/07/05 00:34:13;;;;;;;;;10.00;9.00;;;;;;;;2051561;27;2765850;-76
2023/07/05 00:35:24;;;;;;;;;10.50;9.00;;;;;;;;2040351;28;2758617;-79
2023/07/05 00:36:35;;;;;;;;;9.67;8.33;;;;;;;;2058489;27;1814846;-79
2023/07/05 00:37:46;;;;;;;;;8.50;8.00;;;;;;;;2018949;27;2725240;-79
2023/07/05 00:38:57;;;;;;;;;13.50;10.00;;;;;;;;2064445;27;2792979;-79
2023/07/05 00:40:08;;;;;;;;;8.67;8.33;;;;;;;;2031854;27;2746055;-78
2023/07/05 00:41:20;;;;;;;;;9.00;8.00;;;;;;;;2031990;28;2747160;-78
2023/07/05 00:42:30;;;;;;;;;11.50;9.00;;;;;;;;2026303;27;2771077;-78
2023/07/05 00:43:46;;;;;;;;;11.00;8.00;;;;;;;;2056867;27;2753404;-78
2023/07/05 00:45:26;;;;;;;;;9.67;7.33;;;;;;;;2049804;27;1824252;-78
2023/07/05 00:46:36;;;;;;;;;14.00;10.50;;;;;;;;2017985;27;2789868;-78
2023/07/05 00:47:47;;;;;;;;;9.00;7.50;;;;;;;;2039243;27;2738762;-78
2023/07/05 00:49:03;;;;;;;;;9.00;6.00;;;;;;;;2074321;27;1823201;-78
2023/07/05 00:50:20;;;;;;;;;11.00;8.50;;;;;;;;2032469;27;2770070;-77
2023/07/05 00:51:35;;;;;;;;;9.00;7.00;;;;;;;;2035250;27;2744014;-76
2023/07/05 00:52:46;;;;;;;;;13.00;10.00;;;;;;;;2040549;27;2777354;-77
2023/07/05 00:53:59;;;;;;;;;6.00;5.00;;;;;;;;2024751;27;2750268;-77
2023/07/05 00:55:12;;;;;;;;;9.83;9.83;;;;;;;;2065399;27;1822192;-77
2023/07/05 00:56:28;;;;;;;;;9.67;8.00;;;;;;;;2014766;27;2750421;-77
2023/07/05 00:57:39;;;;;;;;;12.50;10.00;;;;;;;;2025216;27;2787754;-77
2023/07/05 00:58:51;;;;;;;;;9.50;9.50;;;;;;;;2025622;27;1833698;-77
2023/07/05 01:00:11;;;;;;;;;12.50;8.67;;;;;;;;2064410;27;1820050;-77
2023/07/05 01:01:22;;;;;;;;;10.00;8.50;;;;;;;;2014039;27;2759679;-77
2023/07/05 01:02:32;;;;;;;;;13.00;9.00;;;;;;;;2062778;27;2759615;-77
2023/07/05 01:03:47;;;;;;;;;7.00;7.00;;;;;;;;2053791;27;2726327;-77
2023/07/05 01:04:59;;;;;;;;;15.00;8.00;;;;;;;;2031885;27;2762768;-76
2023/07/05 01:06:12;;;;;;;;;8.00;8.00;;;;;;;;2027023;27;2739374;-76
2023/07/05 01:07:23;;;;;;;;;10.50;8.50;;;;;;;;2033831;28;1829484;-77
2023/07/05 01:08:35;;;;;;;;;11.00;9.00;;;;;;;;2025232;27;2772191;-78
2023/07/05 01:09:48;;;;;;;;;8.67;7.50;;;;;;;;2067805;27;1819042;-78
2023/07/05 01:11:06;;;;;;;;;7.33;7.00;;;;;;;;2012734;27;2746174;-78
2023/07/05 01:12:39;;;;;;;;;9.67;7.00;;;;;;;;2034407;27;3472122;-78
2023/07/05 01:13:59;;;;;;;;;10.00;8.33;;;;;;;;2035914;27;3486116;-77
2023/07/05 01:15:12;;;;;;;;;10.33;7.33;;;;;;;;2041529;27;3474189;-78
2023/07/05 01:16:28;;;;;;;;;11.50;8.50;;;;;;;;2041355;27;2767441;-78
2023/07/05 01:17:39;;;;;;;;;10.00;7.00;;;;;;;;2041298;27;2755509;-77
2023/07/05 01:18:57;;;;;;;;;10.00;9.00;;;;;;;;2064903;27;2750253;-77
2023/07/05 01:20:10;;;;;;;;;8.00;7.00;;;;;;;;2029477;27;2746154;-78
2023/07/05 01:21:27;;;;;;;;;9.00;7.33;;;;;;;;2060288;27;1821155;-78
2023/07/05 01:22:38;;;;;;;;;10.00;8.50;;;;;;;;2016017;27;2755465;-78
2023/07/05 01:24:07;;;;;;;;;9.00;7.00;;;;;;;;2065665;27;2746182;-78
2023/07/05 01:25:36;;;;;;;;;8.00;8.00;;;;;;;;2033545;27;2733071;-79
2023/07/05 01:27:09;;;;;;;;;11.33;8.33;;;;;;;;2032760;27;3480440;-79
2023/07/05 01:28:36;;;;;;;;;12.75;12.75;;;;;;;;2029859;27;1848217;-78
2023/07/05 01:30:00;;;;;;;;;14.00;7.00;;;;;;;;2034099;27;2765885;-78
2023/07/05 01:31:11;;;;;;;;;7.33;6.33;;;;;;;;2026311;27;2737912;-78
2023/07/05 01:32:22;;;;;;;;;8.00;7.33;;;;;;;;2062689;27;1826336;-78
2023/07/05 01:33:46;;;;;;;;;9.50;5.50;;;;;;;;2045463;27;2753362;-79
2023/07/05 01:35:09;;;;;;;;;11.00;9.33;;;;;;;;2041938;27;3488772;-79
2023/07/05 01:36:21;;;;;;;;;6.67;6.33;;;;;;;;2033530;27;3445028;-79
2023/07/05 01:37:34;;;;;;;;;9.50;7.00;;;;;;;;2054072;27;2747190;-79
2023/07/05 01:38:44;;;;;;;;;9.00;6.00;;;;;;;;2041983;27;3454445;-79
2023/07/05 01:39:55;;;;;;;;;12.33;7.33;;;;;;;;2064173;27;3476280;-77
2023/07/05 01:41:07;;;;;;;;;10.00;6.00;;;;;;;;2048779;27;3464854;-79
2023/07/05 01:42:25;;;;;;;;;9.67;6.00;;;;;;;;2033998;27;3466887;-79
2023/07/05 01:43:38;;;;;;;;;9.00;5.00;;;;;;;;2039559;27;3457544;-80
2023/07/05 01:44:48;;;;;;;;;7.00;7.00;;;;;;;;2034945;27;3453700;-80
2023/07/05 01:45:59;;;;;;;;;8.33;6.00;;;;;;;;2069501;27;1829581;-80
2023/07/05 01:47:17;;;;;;;;;10.67;7.33;;;;;;;;2058061;27;1816975;-79
2023/07/05 01:48:46;;;;;;;;;7.33;6.00;;;;;;;;2019427;27;3456482;-79
2023/07/05 01:50:18;;;;;;;;;7.67;6.67;;;;;;;;2034046;27;2740991;-79
2023/07/05 01:51:28;;;;;;;;;6.00;6.00;;;;;;;;2039065;27;2737773;-79
2023/07/05 01:52:45;;;;;;;;;8.00;6.33;;;;;;;;2067170;27;2739833;-81
2023/07/05 01:54:14;;;;;;;;;8.00;7.00;;;;;;;;2060027;27;2735741;-80
2023/07/05 01:55:27;;;;;;;;;6.00;5.00;;;;;;;;2038505;27;2743022;-80
2023/07/05 01:56:46;;;;;;;;;6.00;5.67;;;;;;;;2063400;27;2743007;-80
2023/07/05 01:58:03;;;;;;;;;10.67;6.67;;;;;;;;2013985;27;2751318;-80
2023/07/05 01:59:15;;;;;;;;;6.00;6.00;;;;;;;;2034753;27;2743081;-80
2023/07/05 02:00:26;;;;;;;;;4.00;3.00;;;;;;;;2035055;27;2750343;-80
2023/07/05 02:01:37;;;;;;;;;7.67;5.00;;;;;;;;2035037;27;3465883;-79
2023/07/05 02:02:51;;;;;;;;;7.00;5.25;;;;;;;;2057247;27;2742974;-78
2023/07/05 02:04:03;;;;;;;;;7.00;5.00;;;;;;;;2011025;27;3462732;-78
2023/07/05 02:05:14;;;;;;;;;6.33;5.67;;;;;;;;2043529;27;2748245;-78
2023/07/05 02:06:26;;;;;;;;;6.33;5.00;;;;;;;;2055803;27;2748294;-79
2023/07/05 02:07:36;;;;;;;;;7.67;5.00;;;;;;;;2034223;27;2749269;-76
2023/07/05 02:08:49;;;;;;;;;3.67;3.67;;;;;;;;2056150;27;2752351;-76
2023/07/05 02:10:02;;;;;;;;;8.67;5.83;;;;;;;;2069287;27;2740894;-76
2023/07/05 02:11:12;;;;;;;;;6.67;6.00;;;;;;;;2010500;27;2741975;-78
2023/07/05 02:12:24;;;;;;;;;7.00;4.00;;;;;;;;2057704;27;2748233;-78
2023/07/05 02:13:34;;;;;;;;;6.00;6.00;;;;;;;;2035753;27;2746141;-78
2023/07/05 02:14:45;;;;;;;;;4.67;4.33;;;;;;;;2051861;27;2754551;-77
2023/07/05 02:15:56;;;;;;;;;4.67;4.00;;;;;;;;2053295;27;2754844;-77
2023/07/05 02:17:07;;;;;;;;;6.00;5.00;;;;;;;;2062265;27;2745080;-78
2023/07/05 02:18:17;;;;;;;;;4.33;4.00;;;;;;;;2042174;27;2744022;-79
2023/07/05 02:19:28;;;;;;;;;9.33;4.33;;;;;;;;2057791;27;3477327;-79
2023/07/05 02:20:41;;;;;;;;;4.00;3.00;;;;;;;;2067921;27;2740914;-80
2023/07/05 02:21:52;;;;;;;;;5.33;4.00;;;;;;;;2042152;27;2754415;-79
2023/07/05 02:23:04;;;;;;;;;3.40;3.20;;;;;;;;2066681;27;2741947;-80
2023/07/05 02:24:17;;;;;;;;;5.67;4.67;;;;;;;;2060706;27;2742433;-76
2023/07/05 02:25:28;;;;;;;;;4.33;4.00;;;;;;;;2019039;27;2752351;-76
2023/07/05 02:26:39;;;;;;;;;4.67;3.67;;;;;;;;2063247;27;2752355;-82
2023/07/05 02:27:49;;;;;;;;;4.00;4.00;;;;;;;;2053742;27;2741958;-81
2023/07/05 02:29:00;;;;;;;;;4.00;4.00;;;;;;;;2057679;27;2747140;-81
2023/07/05 02:30:13;;;;;;;;;5.67;4.00;;;;;;;;2060314;27;2748677;-80
2023/07/05 02:31:26;;;;;;;;;2.50;2.33;;;;;;;;2068510;27;2727325;-81
2023/07/05 02:32:36;;;;;;;;;8.67;3.67;;;;;;;;2018741;27;2750391;-82
2023/07/05 02:33:47;;;;;;;;;3.67;3.00;;;;;;;;2068585;27;2738840;-80
2023/07/05 02:35:03;;;;;;;;;4.50;4.17;;;;;;;;2068875;27;2737847;-81
2023/07/05 02:36:17;;;;;;;;;8.83;4.00;;;;;;;;2063532;27;2750247;-82
2023/07/05 02:37:27;;;;;;;;;5.00;2.67;;;;;;;;2020831;27;2747148;-82
2023/07/05 02:38:39;;;;;;;;;4.00;2.67;;;;;;;;2068457;27;2731522;-81
2023/07/05 02:39:53;;;;;;;;;6.00;4.33;;;;;;;;2041701;27;2748238;-80
2023/07/05 02:41:07;;;;;;;;;4.67;3.17;;;;;;;;2069367;27;2741930;-80
2023/07/05 02:42:17;;;;;;;;;4.00;4.00;;;;;;;;2019509;27;2749302;-80
2023/07/05 02:43:28;;;;;;;;;6.00;5.00;;;;;;;;2065497;27;2746208;-80
2023/07/05 02:44:39;;;;;;;;;5.33;5.00;;;;;;;;2054983;27;2752349;-80
2023/07/05 02:45:50;;;;;;;;;5.00;5.00;;;;;;;;2062807;27;2752336;-80
2023/07/05 02:47:01;;;;;;;;;6.67;3.00;;;;;;;;2074035;27;1836169;-78
2023/07/05 02:48:14;;;;;;;;;4.33;3.17;;;;;;;;2059751;27;2738279;-78
2023/07/05 02:49:24;;;;;;;;;5.33;4.33;;;;;;;;2035463;27;2748234;-78
2023/07/05 02:50:37;;;;;;;;;6.67;4.67;;;;;;;;2066160;27;1823165;-78
2023/07/05 02:51:50;;;;;;;;;5.83;3.83;;;;;;;;2065835;27;2744050;-77
2023/07/05 02:53:03;;;;;;;;;5.00;3.67;;;;;;;;2041925;27;2744019;-78
2023/07/05 02:54:14;;;;;;;;;5.00;4.00;;;;;;;;2018936;27;2750328;-77
2023/07/05 02:55:24;;;;;;;;;4.00;4.00;;;;;;;;2054171;27;2754471;-78
2023/07/05 02:56:35;;;;;;;;;5.67;3.00;;;;;;;;2053050;27;2739867;-78
2023/07/05 02:57:46;;;;;;;;;3.33;3.00;;;;;;;;2041014;27;2754451;-77
2023/07/05 02:58:56;;;;;;;;;3.00;2.33;;;;;;;;2067618;27;2754455;-77
2023/07/05 03:00:07;;;;;;;;;7.67;3.33;;;;;;;;2033348;27;2746205;-77
2023/07/05 03:01:18;;;;;;;;;6.00;5.00;;;;;;;;2044919;27;2752356;-78
2023/07/05 03:02:29;;;;;;;;;0.00;0.00;;;;;;;;2069082;27;2730492;-77
2023/07/05 03:03:41;;;;;;;;;7.00;4.00;;;;;;;;2067596;27;2754452;-77
2023/07/05 03:04:52;;;;;;;;;5.00;3.00;;;;;;;;2010692;27;2747235;-77
2023/07/05 03:06:03;;;;;;;;;4.67;2.33;;;;;;;;2035553;27;2735783;-77
2023/07/05 03:07:13;;;;;;;;;4.00;3.67;;;;;;;;2058256;27;2738799;-77
2023/07/05 03:08:28;;;;;;;;;4.00;3.00;;;;;;;;2055030;27;2754448;-76
2023/07/05 03:09:41;;;;;;;;;3.17;2.50;;;;;;;;2052780;27;2754461;-76
2023/07/05 03:10:52;;;;;;;;;4.33;2.67;;;;;;;;2005043;27;2748225;-76
2023/07/05 03:12:05;;;;;;;;;4.33;3.67;;;;;;;;2063373;27;2731513;-76
2023/07/05 03:13:18;;;;;;;;;4.33;3.00;;;;;;;;2047066;27;2736079;-76
2023/07/05 03:14:28;;;;;;;;;4.00;2.00;;;;;;;;2020767;27;2752343;-76
2023/07/05 03:15:39;;;;;;;;;3.00;3.00;;;;;;;;2068070;27;2754423;-76
2023/07/05 03:16:50;;;;;;;;;4.00;3.67;;;;;;;;2069788;27;2745059;-76
2023/07/05 03:18:03;;;;;;;;;5.00;4.00;;;;;;;;2060082;27;2737811;-76
2023/07/05 03:19:16;;;;;;;;;6.00;3.83;;;;;;;;2040971;27;2741984;-77
2023/07/05 03:20:29;;;;;;;;;2.83;2.83;;;;;;;;2045577;27;2739861;-77
2023/07/05 03:21:43;;;;;;;;;3.83;3.33;;;;;;;;2046985;27;2742313;-77
2023/07/05 03:22:56;;;;;;;;;2.67;2.50;;;;;;;;2046575;27;2750268;-77
2023/07/05 03:24:06;;;;;;;;;3.00;3.00;;;;;;;;2014770;27;2754466;-78
2023/07/05 03:25:17;;;;;;;;;6.33;3.00;;;;;;;;2069090;27;2741966;-78
2023/07/05 03:26:29;;;;;;;;;5.60;3.00;;;;;;;;2059167;27;2743009;-77
2023/07/05 03:27:39;;;;;;;;;4.67;2.67;;;;;;;;2014362;27;2749226;-77
2023/07/05 03:28:50;;;;;;;;;4.67;2.67;;;;;;;;2060055;27;2747120;-77
2023/07/05 03:30:04;;;;;;;;;4.33;2.33;;;;;;;;2059496;27;2743974;-78
2023/07/05 03:31:17;;;;;;;;;6.00;3.00;;;;;;;;2045862;27;2728431;-78
2023/07/05 03:32:30;;;;;;;;;3.67;3.67;;;;;;;;2027953;27;2739832;-80
2023/07/05 03:33:41;;;;;;;;;2.67;2.67;;;;;;;;2008150;27;2753357;-79
2023/07/05 03:34:52;;;;;;;;;6.33;2.33;;;;;;;;2069614;27;2750272;-79
2023/07/05 03:36:05;;;;;;;;;1.33;1.33;;;;;;;;2071487;27;2730489;-79
2023/07/05 03:37:18;;;;;;;;;2.00;2.00;;;;;;;;2070176;27;2737803;-79
2023/07/05 03:38:32;;;;;;;;;1.00;1.00;;;;;;;;2046777;27;2733653;-79
2023/07/05 03:39:42;;;;;;;;;2.00;2.00;;;;;;;;2020876;27;2751305;-79
2023/07/05 03:41:01;;;;;;;;;0.67;0.67;;;;;;;;2069244;27;2745057;-79
2023/07/05 03:42:11;;;;;;;;;3.00;3.00;;;;;;;;2043165;27;2754435;-78
2023/07/05 03:43:22;;;;;;;;;6.33;3.00;;;;;;;;2068077;27;2754420;-78
2023/07/05 03:44:32;;;;;;;;;3.00;2.00;;;;;;;;2036405;27;2747207;-77
2023/07/05 03:45:43;;;;;;;;;2.33;2.00;;;;;;;;2063739;27;2752378;-77
2023/07/05 03:46:54;;;;;;;;;3.00;3.00;;;;;;;;2059706;27;2754438;-77
2023/07/05 03:48:06;;;;;;;;;3.00;2.00;;;;;;;;2053440;27;2730477;-77
2023/07/05 03:49:19;;;;;;;;;4.50;4.00;;;;;;;;2039797;27;2736731;-77
2023/07/05 03:50:29;;;;;;;;;4.00;3.00;;;;;;;;2011064;27;2754462;-78
2023/07/05 03:51:40;;;;;;;;;2.00;2.00;;;;;;;;2052428;27;2737847;-77
2023/07/05 03:52:53;;;;;;;;;1.50;1.50;;;;;;;;2056839;27;2727357;-77
2023/07/05 03:54:04;;;;;;;;;4.00;2.00;;;;;;;;2007848;27;3461706;-77
2023/07/05 03:55:15;;;;;;;;;5.00;4.00;;;;;;;;2062101;27;2732658;-79
2023/07/05 03:56:28;;;;;;;;;2.67;1.00;;;;;;;;2053926;27;2737821;-78
2023/07/05 03:57:41;;;;;;;;;3.00;3.00;;;;;;;;2040292;27;2733657;-75
2023/07/05 03:58:54;;;;;;;;;2.33;2.17;;;;;;;;2038546;27;2731528;-75
2023/07/05 04:00:07;;;;;;;;;4.33;2.83;;;;;;;;2040676;27;2734621;-79
2023/07/05 04:01:24;;;;;;;;;2.17;2.17;;;;;;;;2045146;27;2729472;-79
2023/07/05 04:02:37;;;;;;;;;2.17;2.17;;;;;;;;2043143;27;2751326;-80
2023/07/05 04:03:53;;;;;;;;;5.00;2.00;;;;;;;;2019913;27;2754475;-81
2023/07/05 04:05:06;;;;;;;;;5.17;3.50;;;;;;;;2058656;27;2729428;-80
2023/07/05 04:06:17;;;;;;;;;3.33;2.67;;;;;;;;2007922;27;2754459;-81
2023/07/05 04:07:29;;;;;;;;;8.00;4.00;;;;;;;;2045842;27;3473187;-80
2023/07/05 04:08:42;;;;;;;;;4.17;3.83;;;;;;;;2070038;27;2742964;-80
2023/07/05 04:09:52;;;;;;;;;4.67;3.00;;;;;;;;2019000;27;2750287;-80
2023/07/05 04:11:03;;;;;;;;;3.00;2.33;;;;;;;;2059863;27;2739908;-80
2023/07/05 04:12:16;;;;;;;;;5.50;3.00;;;;;;;;2062579;27;2736750;-81
2023/07/05 04:13:26;;;;;;;;;3.33;3.33;;;;;;;;2018363;27;2733614;-80
2023/07/05 04:14:37;;;;;;;;;4.67;4.33;;;;;;;;2068837;27;2738822;-80
2023/07/05 04:16:04;;;;;;;;;7.33;4.67;;;;;;;;2069773;27;2744058;-80
2023/07/05 04:17:17;;;;;;;;;4.00;3.83;;;;;;;;2047444;27;2746087;-80
2023/07/05 04:18:27;;;;;;;;;7.67;5.00;;;;;;;;2020231;27;2754451;-81
2023/07/05 04:19:38;;;;;;;;;5.33;4.00;;;;;;;;2047082;27;2754478;-78
2023/07/05 04:20:49;;;;;;;;;5.00;5.00;;;;;;;;2058067;27;2752421;-78
2023/07/05 04:22:00;;;;;;;;;3.33;2.67;;;;;;;;2061890;27;2749231;-78
2023/07/05 04:23:10;;;;;;;;;6.00;4.00;;;;;;;;2063936;27;2750820;-79
2023/07/05 04:24:23;;;;;;;;;6.20;3.00;;;;;;;;2059978;27;2754428;-79
2023/07/05 04:25:33;;;;;;;;;6.33;5.00;;;;;;;;2007783;27;2750300;-79
2023/07/05 04:26:44;;;;;;;;;4.00;4.00;;;;;;;;2049466;27;2754506;-79
2023/07/05 04:27:55;;;;;;;;;5.33;4.00;;;;;;;;2052414;27;2750665;-80
2023/07/05 04:29:06;;;;;;;;;4.00;4.00;;;;;;;;2068417;27;2746111;-80
2023/07/05 04:30:16;;;;;;;;;5.00;2.67;;;;;;;;2036096;27;2754481;-79
2023/07/05 04:31:29;;;;;;;;;5.00;5.00;;;;;;;;2055051;27;2747229;-80
2023/07/05 04:32:39;;;;;;;;;14.33;7.33;;;;;;;;2031016;27;3496108;-80
2023/07/05 04:33:50;;;;;;;;;5.00;4.33;;;;;;;;2058320;27;2741934;-80
2023/07/05 04:35:01;;;;;;;;;5.33;5.33;;;;;;;;2005629;27;2745067;-75
2023/07/05 04:36:12;;;;;;;;;5.00;5.00;;;;;;;;2067073;27;1819081;-74
2023/07/05 04:37:25;;;;;;;;;5.67;5.50;;;;;;;;2063018;27;2741995;-75
2023/07/05 04:38:35;;;;;;;;;5.67;5.00;;;;;;;;2021065;27;2747163;-75
2023/07/05 04:39:46;;;;;;;;;6.33;6.00;;;;;;;;2057667;27;2743021;-77
2023/07/05 04:40:58;;;;;;;;;4.00;3.00;;;;;;;;2060513;27;2746217;-76
2023/07/05 04:42:11;;;;;;;;;4.50;4.17;;;;;;;;2059332;27;2750289;-76
2023/07/05 04:43:21;;;;;;;;;8.67;6.33;;;;;;;;2008621;27;3465330;-76
2023/07/05 04:44:32;;;;;;;;;3.33;3.33;;;;;;;;2054277;27;2742041;-76
2023/07/05 04:45:52;;;;;;;;;5.00;4.00;;;;;;;;2055342;27;2750335;-76
2023/07/05 04:47:02;;;;;;;;;7.33;3.00;;;;;;;;2043549;27;2757607;-76
2023/07/05 04:48:13;;;;;;;;;6.33;6.00;;;;;;;;2063390;27;3448146;-76
2023/07/05 04:49:24;;;;;;;;;5.00;4.00;;;;;;;;2060696;27;2748240;-76
2023/07/05 04:50:35;;;;;;;;;9.33;6.00;;;;;;;;2054667;27;2760691;-76
2023/07/05 04:51:46;;;;;;;;;6.67;4.67;;;;;;;;2054211;27;2745080;-76
2023/07/05 04:52:58;;;;;;;;;6.60;5.60;;;;;;;;2054334;27;2741940;-76
2023/07/05 04:54:09;;;;;;;;;6.67;6.00;;;;;;;;2003728;27;2741979;-77
2023/07/05 04:55:19;;;;;;;;;5.00;5.00;;;;;;;;2059853;27;2746106;-76
2023/07/05 04:56:32;;;;;;;;;8.00;5.00;;;;;;;;2070290;27;2746132;-76
2023/07/05 04:57:43;;;;;;;;;7.00;5.00;;;;;;;;2005629;27;2741931;-76
2023/07/05 04:58:54;;;;;;;;;6.00;6.00;;;;;;;;2047252;27;2743052;-76
2023/07/05 05:00:05;;;;;;;;;6.00;5.00;;;;;;;;2045155;27;2746135;-76
2023/07/05 05:01:17;;;;;;;;;10.00;5.00;;;;;;;;2028776;27;3485707;-76
2023/07/05 05:02:31;;;;;;;;;6.00;5.67;;;;;;;;2069221;27;2740954;-78
2023/07/05 05:03:41;;;;;;;;;7.00;4.33;;;;;;;;2032872;27;1826349;-78
2023/07/05 05:04:52;;;;;;;;;6.00;5.00;;;;;;;;2040541;27;2745084;-78
2023/07/05 05:06:03;;;;;;;;;4.67;4.67;;;;;;;;2057745;27;2754470;-78
2023/07/05 05:07:14;;;;;;;;;5.00;3.33;;;;;;;;2061368;27;2749274;-78
2023/07/05 05:08:25;;;;;;;;;4.67;4.33;;;;;;;;2049304;27;2750330;-78
2023/07/05 05:09:36;;;;;;;;;5.00;4.00;;;;;;;;2050365;27;2749286;-77
2023/07/05 05:10:52;;;;;;;;;0.00;0.00;;;;;;;;2054088;27;2728447;-77
2023/07/05 05:12:03;;;;;;;;;3.50;3.25;;;;;;;;2018146;27;1821121;-78
2023/07/05 05:13:14;;;;;;;;;4.00;4.00;;;;;;;;2034746;27;2754562;-78
2023/07/05 05:14:25;;;;;;;;;7.67;4.33;;;;;;;;2052023;27;3471112;-75
2023/07/05 05:15:40;;;;;;;;;3.33;3.00;;;;;;;;2055926;27;2754510;-75
2023/07/05 05:16:50;;;;;;;;;8.67;5.33;;;;;;;;2041887;27;3454399;-75
2023/07/05 05:18:01;;;;;;;;;3.67;3.67;;;;;;;;2068197;27;2740882;-74
2023/07/05 05:19:11;;;;;;;;;6.00;4.67;;;;;;;;2040365;27;2754515;-75
2023/07/05 05:20:22;;;;;;;;;6.00;5.33;;;;;;;;2053778;27;3467995;-77
2023/07/05 05:21:33;;;;;;;;;5.00;4.00;;;;;;;;2044281;27;2754430;-75
2023/07/05 05:22:44;;;;;;;;;6.67;4.00;;;;;;;;2057508;27;2750281;-75
2023/07/05 05:23:54;;;;;;;;;4.33;3.00;;;;;;;;2039246;27;2752372;-74
2023/07/05 05:25:05;;;;;;;;;5.00;4.00;;;;;;;;2045324;27;2754502;-74
2023/07/05 05:26:16;;;;;;;;;4.67;4.00;;;;;;;;2054747;27;3470067;-74
2023/07/05 05:27:27;;;;;;;;;8.00;6.00;;;;;;;;2062877;27;3452348;-74
2023/07/05 05:28:37;;;;;;;;;8.67;5.33;;;;;;;;2066715;27;2742017;-74
2023/07/05 05:29:48;;;;;;;;;7.67;5.00;;;;;;;;2037622;27;2747132;-74
2023/07/05 05:31:09;;;;;;;;;6.67;6.00;;;;;;;;2048895;27;2748205;-74
2023/07/05 05:32:22;;;;;;;;;7.83;4.50;;;;;;;;2050461;27;2746530;-74
2023/07/05 05:33:35;;;;;;;;;5.50;4.33;;;;;;;;2037157;27;2744042;-75
2023/07/05 05:34:46;;;;;;;;;8.67;5.33;;;;;;;;2024156;27;1836736;-74
2023/07/05 05:35:57;;;;;;;;;9.33;7.00;;;;;;;;2032342;27;2759729;-74
2023/07/05 05:37:08;;;;;;;;;6.67;4.00;;;;;;;;2063856;27;2749292;-74
2023/07/05 05:38:19;;;;;;;;;6.33;4.00;;;;;;;;2054279;27;2749250;-74
2023/07/05 05:39:29;;;;;;;;;6.67;4.67;;;;;;;;2033658;27;2742006;-74
2023/07/05 05:40:41;;;;;;;;;6.67;5.67;;;;;;;;2066378;27;3459603;-74
2023/07/05 05:41:51;;;;;;;;;4.00;3.00;;;;;;;;2055328;27;2746099;-75
2023/07/05 05:43:02;;;;;;;;;5.00;4.00;;;;;;;;2009644;27;2754438;-75
2023/07/05 05:44:13;;;;;;;;;4.33;4.33;;;;;;;;2062692;27;2752372;-75
2023/07/05 05:45:23;;;;;;;;;10.33;4.67;;;;;;;;2062801;27;3497152;-75
2023/07/05 05:46:34;;;;;;;;;4.00;3.33;;;;;;;;2061934;27;2754938;-75
2023/07/05 05:47:45;;;;;;;;;4.33;3.67;;;;;;;;2061190;27;3467992;-75
2023/07/05 05:48:57;;;;;;;;;5.33;5.33;;;;;;;;2070712;27;1815875;-75
2023/07/05 05:50:07;;;;;;;;;5.33;4.00;;;;;;;;2040959;27;2747651;-75
2023/07/05 05:51:18;;;;;;;;;7.33;5.00;;;;;;;;2059419;27;2748178;-75
2023/07/05 05:52:29;;;;;;;;;8.00;5.00;;;;;;;;2050442;27;2753496;-75
2023/07/05 05:53:41;;;;;;;;;5.75;4.50;;;;;;;;2056374;27;2749729;-75
2023/07/05 05:54:54;;;;;;;;;5.83;5.33;;;;;;;;2067101;27;2746096;-74
2023/07/05 05:56:04;;;;;;;;;6.00;4.00;;;;;;;;2009340;27;2752967;-74
2023/07/05 05:57:15;;;;;;;;;5.00;5.00;;;;;;;;2054766;27;2746199;-74
2023/07/05 05:58:26;;;;;;;;;7.33;6.33;;;;;;;;2065496;27;2746130;-75
2023/07/05 05:59:36;;;;;;;;;6.33;4.67;;;;;;;;2035133;27;2750420;-75
2023/07/05 06:00:48;;;;;;;;;8.33;6.00;;;;;;;;2058047;27;2740930;-75
2023/07/05 06:01:58;;;;;;;;;6.00;5.00;;;;;;;;2034614;27;3461734;-75
2023/07/05 06:03:09;;;;;;;;;4.00;4.00;;;;;;;;2052119;27;3463822;-81
2023/07/05 06:04:20;;;;;;;;;9.67;6.67;;;;;;;;2028067;27;2757587;-74
2023/07/05 06:05:31;;;;;;;;;7.00;5.67;;;;;;;;2056967;27;2750653;-74
2023/07/05 06:06:42;;;;;;;;;6.00;5.00;;;;;;;;2032561;27;3463854;-74
2023/07/05 06:07:53;;;;;;;;;5.00;3.00;;;;;;;;2053966;27;2737766;-74
2023/07/05 06:09:06;;;;;;;;;5.67;2.33;;;;;;;;2065862;27;2728453;-74
2023/07/05 06:10:21;;;;;;;;;5.17;3.33;;;;;;;;2046448;27;2739863;-74
2023/07/05 06:11:31;;;;;;;;;11.00;5.00;;;;;;;;2009387;27;2764933;-74
2023/07/05 06:12:42;;;;;;;;;5.00;5.00;;;;;;;;2059026;27;2746110;-74
2023/07/05 06:13:53;;;;;;;;;6.00;5.33;;;;;;;;2035211;27;2743092;-73
2023/07/05 06:15:04;;;;;;;;;7.00;5.00;;;;;;;;2063451;27;2748185;-73
2023/07/05 06:16:14;;;;;;;;;4.67;3.00;;;;;;;;2055903;27;2754515;-74
2023/07/05 06:17:26;;;;;;;;;5.67;4.00;;;;;;;;2062327;27;2750261;-74
2023/07/05 06:18:40;;;;;;;;;3.33;3.33;;;;;;;;2063571;27;2742957;-74
2023/07/05 06:19:50;;;;;;;;;6.00;4.33;;;;;;;;2014626;27;2748220;-74
2023/07/05 06:21:01;;;;;;;;;6.00;4.67;;;;;;;;2066648;27;2746448;-74
2023/07/05 06:22:12;;;;;;;;;5.67;3.00;;;;;;;;2070039;27;2746106;-74
2023/07/05 06:23:22;;;;;;;;;6.67;4.00;;;;;;;;2024692;27;2750332;-74
2023/07/05 06:24:33;;;;;;;;;9.67;5.00;;;;;;;;2049487;27;2760759;-74
2023/07/05 06:25:44;;;;;;;;;6.00;6.00;;;;;;;;2056887;27;2746512;-74
2023/07/05 06:26:57;;;;;;;;;5.00;4.00;;;;;;;;2051302;27;2748182;-74
2023/07/05 06:28:07;;;;;;;;;7.00;5.00;;;;;;;;1998114;27;2746258;-74
2023/07/05 06:29:18;;;;;;;;;3.67;3.00;;;;;;;;2050480;27;2748289;-75
2023/07/05 06:30:29;;;;;;;;;4.33;4.33;;;;;;;;2050729;27;2742986;-74
2023/07/05 06:31:40;;;;;;;;;6.33;3.33;;;;;;;;2052444;27;2746121;-74
2023/07/05 06:32:50;;;;;;;;;7.00;5.67;;;;;;;;2034967;27;2746164;-74
2023/07/05 06:34:01;;;;;;;;;4.00;4.00;;;;;;;;2056307;27;2750273;-74
2023/07/05 06:35:12;;;;;;;;;6.00;4.67;;;;;;;;2057101;27;2747140;-74
2023/07/05 06:36:23;;;;;;;;;7.33;4.33;;;;;;;;2057485;27;2746115;-74
2023/07/05 06:37:34;;;;;;;;;3.67;3.67;;;;;;;;2067836;27;2752340;-74
2023/07/05 06:38:46;;;;;;;;;5.80;5.00;;;;;;;;2056922;27;2739931;-74
2023/07/05 06:39:56;;;;;;;;;5.00;5.00;;;;;;;;2005958;27;2746119;-74
2023/07/05 06:41:07;;;;;;;;;5.00;5.00;;;;;;;;2066108;27;2751347;-74
2023/07/05 06:42:18;;;;;;;;;4.67;4.00;;;;;;;;2063471;27;2752435;-74
2023/07/05 06:43:29;;;;;;;;;6.00;4.00;;;;;;;;2060386;27;2744024;-74
2023/07/05 06:44:40;;;;;;;;;3.33;3.33;;;;;;;;2057120;27;2741942;-74
2023/07/05 06:45:52;;;;;;;;;7.00;5.67;;;;;;;;2053814;27;2725359;-74
2023/07/05 06:47:03;;;;;;;;;5.67;4.67;;;;;;;;2044368;27;2746092;-74
2023/07/05 06:48:13;;;;;;;;;6.33;6.33;;;;;;;;2073894;27;1813882;-74
2023/07/05 06:49:26;;;;;;;;;6.00;5.00;;;;;;;;2054074;27;2742990;-74
2023/07/05 06:50:37;;;;;;;;;5.00;5.00;;;;;;;;2030236;27;2746175;-74
2023/07/05 06:51:48;;;;;;;;;5.67;5.00;;;;;;;;2062021;27;2746217;-74
2023/07/05 06:52:59;;;;;;;;;7.00;5.00;;;;;;;;2060807;27;2746183;-74
2023/07/05 06:54:10;;;;;;;;;7.00;4.00;;;;;;;;2066139;27;3466401;-74
2023/07/05 06:55:20;;;;;;;;;7.67;3.67;;;;;;;;2055306;27;3456523;-74
2023/07/05 06:56:31;;;;;;;;;4.33;4.00;;;;;;;;2050796;27;3463866;-74
2023/07/05 06:57:42;;;;;;;;;5.67;5.00;;;;;;;;2059573;27;2745056;-74
2023/07/05 06:58:53;;;;;;;;;6.00;4.00;;;;;;;;2053195;27;2741950;-74
2023/07/05 07:00:09;;;;;;;;;3.67;3.67;;;;;;;;2056493;27;2753453;-74
2023/07/05 07:01:19;;;;;;;;;4.00;4.00;;;;;;;;2035169;27;2752443;-74